createdAt,value
2019-05-20T00:02:27.983Z,1.80
2019-05-20T00:04:54.928Z,1.60
2019-05-20T00:07:24.446Z,1.87
2019-05-20T00:09:54.212Z,1.90
2019-05-20T00:12:23.905Z,1.93
2019-05-20T00:14:53.568Z,1.60
2019-05-20T00:17:23.330Z,1.50
2019-05-20T00:19:52.798Z,1.70
2019-05-20T00:22:22.341Z,1.70
2019-05-20T00:24:51.786Z,1.53
2019-05-20T00:27:21.668Z,1.40
2019-05-20T00:29:51.424Z,1.40
2019-05-20T00:32:21.163Z,1.80
2019-05-20T00:34:51.269Z,1.57
2019-05-20T00:37:21.009Z,1.60
2019-05-20T00:39:50.659Z,1.60
2019-05-20T00:42:20.490Z,1.57
2019-05-20T00:44:49.981Z,1.60
2019-05-20T00:47:19.635Z,1.80
2019-05-20T00:49:49.238Z,1.63
2019-05-20T00:52:19.189Z,1.80
2019-05-20T00:54:49.318Z,1.80
2019-05-20T00:57:18.868Z,1.70
2019-05-20T00:59:48.661Z,1.70
2019-05-20T01:02:18.526Z,1.57
2019-05-20T01:04:48.146Z,1.50
2019-05-20T01:07:17.904Z,2.07
2019-05-20T01:09:47.719Z,1.73
2019-05-20T01:12:17.299Z,1.73
2019-05-20T01:14:47.043Z,2.00
2019-05-20T01:17:16.657Z,2.03
2019-05-20T01:19:46.551Z,2.37
2019-05-20T01:22:16.169Z,1.80
2019-05-20T01:24:45.580Z,1.90
2019-05-20T01:27:15.174Z,2.50
2019-05-20T01:29:44.645Z,1.80
2019-05-20T01:32:14.382Z,2.23
2019-05-20T01:34:45.305Z,2.87
2019-05-20T01:37:15.009Z,2.17
2019-05-20T01:39:44.759Z,2.17
2019-05-20T01:42:14.166Z,2.10
2019-05-20T01:44:43.994Z,2.13
2019-05-20T01:47:13.498Z,2.10
2019-05-20T01:49:43.274Z,2.20
2019-05-20T01:52:12.690Z,2.40
2019-05-20T01:54:42.452Z,2.57
2019-05-20T01:57:12.229Z,2.50
2019-05-20T01:59:41.999Z,2.30
2019-05-20T02:02:12.225Z,2.80
2019-05-20T02:04:41.662Z,2.30
2019-05-20T02:07:11.458Z,2.40
2019-05-20T02:09:40.976Z,2.33
2019-05-20T02:12:10.362Z,2.40
2019-05-20T02:14:45.568Z,2.10
2019-05-20T02:17:15.074Z,2.20
2019-05-20T02:19:44.576Z,2.70
2019-05-20T02:22:14.413Z,2.70
2019-05-20T02:24:44.153Z,2.90
2019-05-20T02:27:13.976Z,2.40
2019-05-20T02:29:43.565Z,2.70
2019-05-20T02:32:13.235Z,2.97
2019-05-20T02:34:42.854Z,3.03
2019-05-20T02:37:12.563Z,2.73
2019-05-20T02:39:42.324Z,2.60
2019-05-20T02:42:12.133Z,2.23
2019-05-20T02:44:41.881Z,2.40
2019-05-20T02:47:11.697Z,2.60
2019-05-20T02:49:41.130Z,2.50
2019-05-20T02:52:10.932Z,2.30
2019-05-20T02:54:40.635Z,2.30
2019-05-20T02:57:10.320Z,2.80
2019-05-20T02:59:40.111Z,2.90
2019-05-20T03:02:09.792Z,2.87
2019-05-20T03:04:39.563Z,2.57
2019-05-20T03:07:09.489Z,4.90
2019-05-20T03:09:39.258Z,4.53
2019-05-20T03:12:09.116Z,4.50
2019-05-20T03:14:38.818Z,4.43
2019-05-20T03:17:08.674Z,5.70
2019-05-20T03:19:38.162Z,5.23
2019-05-20T03:22:07.938Z,5.73
2019-05-20T03:24:37.760Z,5.60
2019-05-20T03:27:07.287Z,5.03
2019-05-20T03:29:36.996Z,4.63
2019-05-20T03:32:06.661Z,4.40
2019-05-20T03:34:47.750Z,3.60
2019-05-20T03:37:07.312Z,3.80
2019-05-20T03:39:37.058Z,3.47
2019-05-20T03:42:06.455Z,3.20
2019-05-20T03:44:36.140Z,3.10
2019-05-20T03:47:05.656Z,3.00
2019-05-20T03:49:35.236Z,3.20
2019-05-20T03:52:04.956Z,3.00
2019-05-20T03:54:34.670Z,3.30
2019-05-20T03:57:04.512Z,3.20
2019-05-20T03:59:33.937Z,3.03
2019-05-20T04:02:03.849Z,3.50
2019-05-20T04:04:33.531Z,4.50
2019-05-20T04:07:03.191Z,4.13
2019-05-20T04:09:32.706Z,4.07
2019-05-20T04:12:02.262Z,4.20
2019-05-20T04:14:32.059Z,3.53
2019-05-20T04:17:01.827Z,3.63
2019-05-20T04:19:31.538Z,3.23
2019-05-20T04:22:01.389Z,3.43
2019-05-20T04:24:31.170Z,3.90
2019-05-20T04:27:01.735Z,3.70
2019-05-20T04:29:31.510Z,3.67
2019-05-20T04:32:01.068Z,3.90
2019-05-20T04:34:30.741Z,3.73
2019-05-20T04:37:00.540Z,3.53
2019-05-20T04:39:30.034Z,3.50
2019-05-20T04:41:59.735Z,3.13
2019-05-20T04:44:29.515Z,3.17
2019-05-20T04:46:59.212Z,3.43
2019-05-20T04:49:29.129Z,3.50
2019-05-20T04:51:58.869Z,3.67
2019-05-20T04:54:28.297Z,3.67
2019-05-20T04:56:58.061Z,3.20
2019-05-20T04:59:27.806Z,3.10
2019-05-20T05:01:57.518Z,3.00
2019-05-20T05:04:26.934Z,2.73
2019-05-20T05:06:56.899Z,3.00
2019-05-20T05:09:26.391Z,3.20
2019-05-20T05:11:55.788Z,3.20
2019-05-20T05:14:25.655Z,3.10
2019-05-20T05:16:55.448Z,3.37
2019-05-20T05:19:25.347Z,2.77
2019-05-20T05:21:55.231Z,3.30
2019-05-20T05:24:25.141Z,3.20
2019-05-20T05:26:54.542Z,2.70
2019-05-20T05:29:24.581Z,3.20
2019-05-20T05:31:54.193Z,3.23
2019-05-20T05:34:24.030Z,2.93
2019-05-20T05:36:53.619Z,2.83
2019-05-20T05:39:23.379Z,3.20
2019-05-20T05:41:53.127Z,3.10
2019-05-20T05:44:22.982Z,2.80
2019-05-20T05:46:52.389Z,3.03
2019-05-20T05:49:22.137Z,2.90
2019-05-20T05:51:52.094Z,3.10
2019-05-20T05:54:21.810Z,2.90
2019-05-20T05:56:51.408Z,2.80
2019-05-20T05:59:21.127Z,2.70
2019-05-20T06:01:50.828Z,2.93
2019-05-20T06:04:20.459Z,2.77
2019-05-20T06:06:50.170Z,2.70
2019-05-20T06:09:19.689Z,2.93
2019-05-20T06:11:49.357Z,2.77
2019-05-20T06:14:18.828Z,2.83
2019-05-20T06:16:50.405Z,2.80
2019-05-20T06:19:20.125Z,3.13
2019-05-20T06:21:49.948Z,3.20
2019-05-20T06:24:19.808Z,3.00
2019-05-20T06:26:49.328Z,2.77
2019-05-20T06:29:19.099Z,3.10
2019-05-20T06:31:48.817Z,2.97
2019-05-20T06:34:18.498Z,3.13
2019-05-20T06:36:50.465Z,2.70
2019-05-20T06:39:19.917Z,2.60
2019-05-20T06:41:49.507Z,3.00
2019-05-20T06:44:19.038Z,2.97
2019-05-20T06:46:48.766Z,2.93
2019-05-20T06:49:18.655Z,3.00
2019-05-20T06:51:48.415Z,3.20
2019-05-20T06:54:18.212Z,3.63
2019-05-20T06:56:48.065Z,4.60
2019-05-20T06:59:17.628Z,3.70
2019-05-20T07:01:47.141Z,4.10
2019-05-20T07:04:16.763Z,4.70
2019-05-20T07:06:47.687Z,4.50
2019-05-20T07:09:17.381Z,4.20
2019-05-20T07:11:52.692Z,4.23
2019-05-20T07:14:18.537Z,3.80
2019-05-20T07:16:47.935Z,3.57
2019-05-20T07:19:17.362Z,3.70
2019-05-20T07:21:47.070Z,3.57
2019-05-20T07:24:16.567Z,3.43
2019-05-20T07:26:46.153Z,4.33
2019-05-20T07:29:15.832Z,3.73
2019-05-20T07:31:45.528Z,4.00
2019-05-20T07:34:15.039Z,4.00
2019-05-20T07:37:01.476Z,3.80
2019-05-20T07:39:16.153Z,3.73
2019-05-20T07:41:45.665Z,4.47
2019-05-20T07:44:15.463Z,3.97
2019-05-20T07:46:45.569Z,3.87
2019-05-20T07:49:16.114Z,3.60
2019-05-20T07:51:47.245Z,3.80
2019-05-20T07:54:17.391Z,3.30
2019-05-20T07:56:49.568Z,3.10
2019-05-20T07:59:22.068Z,3.20
2019-05-20T08:01:51.913Z,3.53
2019-05-20T08:04:21.641Z,2.87
2019-05-20T08:06:51.257Z,2.90
2019-05-20T08:09:20.950Z,3.37
2019-05-20T08:11:50.372Z,3.77
2019-05-20T08:14:20.254Z,3.40
2019-05-20T08:16:50.176Z,3.33
2019-05-20T08:19:19.850Z,3.40
2019-05-20T08:21:49.777Z,3.73
2019-05-20T08:24:19.407Z,3.40
2019-05-20T08:26:49.123Z,3.30
2019-05-20T08:29:19.029Z,3.70
2019-05-20T08:31:48.728Z,3.40
2019-05-20T08:34:18.651Z,3.63
2019-05-20T08:36:48.452Z,3.60
2019-05-20T08:39:18.180Z,3.70
2019-05-20T08:41:47.902Z,3.53
2019-05-20T08:44:17.682Z,3.90
2019-05-20T08:46:47.207Z,3.20
2019-05-20T08:49:16.962Z,3.50
2019-05-20T08:51:46.477Z,3.60
2019-05-20T08:54:16.229Z,3.83
2019-05-20T08:56:49.278Z,3.97
2019-05-20T08:59:17.490Z,4.40
2019-05-20T09:01:47.373Z,4.00
2019-05-20T09:04:17.099Z,4.00
2019-05-20T09:06:46.914Z,3.50
2019-05-20T09:09:16.554Z,3.10
2019-05-20T09:11:47.948Z,3.90
2019-05-20T09:14:18.020Z,3.60
2019-05-20T09:16:47.600Z,3.43
2019-05-20T09:19:17.400Z,3.47
2019-05-20T09:21:47.133Z,2.90
2019-05-20T09:24:18.967Z,2.90
2019-05-20T09:26:48.134Z,2.90
2019-05-20T09:29:17.996Z,2.63
2019-05-20T09:31:47.859Z,2.70
2019-05-20T09:34:18.825Z,2.25
2019-05-20T09:36:48.548Z,2.75
2019-05-20T09:39:18.147Z,2.80
2019-05-20T09:41:47.735Z,2.60
2019-05-20T09:44:17.591Z,2.50
2019-05-20T09:46:47.387Z,2.40
2019-05-20T09:49:17.018Z,2.30
2019-05-20T09:51:46.679Z,2.72
2019-05-20T09:54:16.464Z,2.72
2019-05-20T09:56:46.140Z,2.70
2019-05-20T09:59:16.549Z,2.42
2019-05-20T10:01:46.102Z,2.70
2019-05-20T10:04:15.874Z,2.52
2019-05-20T10:06:45.958Z,3.10
2019-05-20T10:09:15.392Z,2.80
2019-05-20T10:11:45.339Z,2.72
2019-05-20T10:14:15.179Z,2.62
2019-05-20T10:16:45.024Z,2.80
2019-05-20T10:19:14.451Z,2.60
2019-05-20T10:21:44.161Z,2.80
2019-05-20T10:24:13.956Z,2.67
2019-05-20T10:26:43.625Z,3.08
2019-05-20T10:29:13.460Z,7.08
2019-05-20T10:31:42.980Z,4.83
2019-05-20T10:34:12.765Z,2.75
2019-05-20T10:36:42.638Z,2.87
2019-05-20T10:39:12.462Z,3.10
2019-05-20T10:41:42.188Z,2.77
2019-05-20T10:44:11.612Z,3.27
2019-05-20T10:46:41.434Z,4.30
2019-05-20T10:49:11.227Z,2.85
2019-05-20T10:51:40.966Z,3.20
2019-05-20T10:54:10.901Z,3.00
2019-05-20T10:56:40.807Z,3.00
2019-05-20T10:59:12.130Z,3.58
2019-05-20T11:01:41.705Z,4.30
2019-05-20T11:04:11.487Z,3.25
2019-05-20T11:06:41.013Z,3.12
2019-05-20T11:09:14.025Z,3.10
2019-05-20T11:11:42.075Z,2.83
2019-05-20T11:14:11.799Z,3.02
2019-05-20T11:16:41.819Z,3.08
2019-05-20T11:19:11.274Z,3.10
2019-05-20T11:21:41.031Z,2.50
2019-05-20T11:24:10.748Z,3.10
2019-05-20T11:26:40.535Z,3.02
2019-05-20T11:29:10.319Z,2.90
2019-05-20T11:31:40.301Z,2.95
2019-05-20T11:34:10.175Z,3.33
2019-05-20T11:36:40.005Z,3.50
2019-05-20T11:39:09.938Z,3.20
2019-05-20T11:41:52.651Z,3.45
2019-05-20T11:44:12.136Z,3.45
2019-05-20T11:46:41.775Z,3.27
2019-05-20T11:49:11.526Z,4.55
2019-05-20T11:51:41.154Z,3.22
2019-05-20T11:54:11.123Z,3.15
2019-05-20T11:56:40.569Z,3.15
2019-05-20T11:59:10.574Z,2.98
2019-05-20T12:01:39.959Z,2.90
2019-05-20T12:04:09.386Z,3.42
2019-05-20T12:06:39.174Z,3.15
2019-05-20T12:09:09.281Z,2.87
2019-05-20T12:11:39.102Z,2.92
2019-05-20T12:14:08.892Z,3.37
2019-05-20T12:16:38.635Z,3.52
2019-05-20T12:19:08.124Z,3.47
2019-05-20T12:21:37.952Z,3.60
2019-05-20T12:24:07.645Z,3.40
2019-05-20T12:26:37.243Z,3.50
2019-05-20T12:29:06.782Z,3.02
2019-05-20T12:31:36.184Z,2.90
2019-05-20T12:34:05.955Z,2.95
2019-05-20T12:36:35.831Z,3.27
2019-05-20T12:39:07.156Z,3.25
2019-05-20T12:41:36.876Z,3.22
2019-05-20T12:44:11.790Z,3.10
2019-05-20T12:46:38.270Z,2.90
2019-05-20T12:49:07.929Z,3.20
2019-05-20T12:51:37.704Z,2.65
2019-05-20T12:54:07.511Z,2.57
2019-05-20T12:56:37.142Z,2.07
2019-05-20T12:59:06.875Z,2.50
2019-05-20T13:01:36.592Z,2.47
2019-05-20T13:04:06.078Z,2.70
2019-05-20T13:06:35.651Z,2.67
2019-05-20T13:09:06.846Z,3.00
2019-05-20T13:11:36.496Z,2.20
2019-05-20T13:14:05.915Z,2.60
2019-05-20T13:16:35.780Z,2.77
2019-05-20T13:19:05.563Z,2.50
2019-05-20T13:21:35.447Z,2.93
2019-05-20T13:24:05.245Z,2.67
2019-05-20T13:26:35.057Z,2.20
2019-05-20T13:29:04.875Z,2.53
2019-05-20T13:31:34.625Z,3.30
2019-05-20T13:34:04.493Z,2.47
2019-05-20T13:36:34.215Z,2.47
2019-05-20T13:39:04.991Z,2.87
2019-05-20T13:41:34.488Z,2.80
2019-05-20T13:44:04.010Z,2.70
2019-05-20T13:46:33.648Z,3.07
2019-05-20T13:49:03.532Z,2.97
2019-05-20T13:51:33.282Z,2.57
2019-05-20T13:54:03.133Z,3.37
2019-05-20T13:56:32.793Z,2.73
2019-05-20T13:59:02.613Z,2.70
2019-05-20T14:01:32.407Z,3.33
2019-05-20T14:04:02.133Z,2.70
2019-05-20T14:06:31.846Z,2.97
2019-05-20T14:09:01.326Z,3.00
2019-05-20T14:11:34.755Z,2.90
2019-05-20T14:14:02.214Z,3.60
2019-05-20T14:16:31.914Z,3.00
2019-05-20T14:19:01.718Z,3.33
2019-05-20T14:21:31.409Z,3.13
2019-05-20T14:24:01.142Z,3.10
2019-05-20T14:26:31.079Z,3.20
2019-05-20T14:29:00.599Z,3.20
2019-05-20T14:31:30.015Z,3.70
2019-05-20T14:33:59.765Z,3.50
2019-05-20T14:36:39.314Z,3.53
2019-05-20T14:39:00.673Z,2.80
2019-05-20T14:41:30.594Z,3.23
2019-05-20T14:44:00.367Z,3.50
2019-05-20T14:46:30.176Z,3.40
2019-05-20T14:49:02.377Z,3.40
2019-05-20T14:51:31.413Z,3.33
2019-05-20T14:54:00.931Z,3.40
2019-05-20T14:56:30.606Z,3.00
2019-05-20T14:59:00.436Z,3.30
2019-05-20T15:01:30.258Z,2.60
2019-05-20T15:03:59.985Z,2.73
2019-05-20T15:06:29.650Z,2.63
2019-05-20T15:08:59.375Z,2.47
2019-05-20T15:11:37.781Z,3.70
2019-05-20T15:14:00.715Z,2.70
2019-05-20T15:16:30.445Z,2.60
2019-05-20T15:19:00.155Z,2.73
2019-05-20T15:21:29.933Z,2.83
2019-05-20T15:23:59.768Z,2.50
2019-05-20T15:26:29.589Z,2.40
2019-05-20T15:28:59.303Z,2.47
2019-05-20T15:31:28.717Z,2.60
2019-05-20T15:33:58.422Z,2.53
2019-05-20T15:36:27.917Z,2.83
2019-05-20T15:38:57.743Z,2.30
2019-05-20T15:41:27.516Z,2.33
2019-05-20T15:43:57.242Z,2.33
2019-05-20T15:46:26.879Z,2.70
2019-05-20T15:48:56.744Z,2.40
2019-05-20T15:51:26.252Z,2.50
2019-05-20T15:53:56.035Z,2.47
2019-05-20T15:56:25.836Z,2.93
2019-05-20T15:58:55.477Z,3.03
2019-05-20T16:01:25.309Z,2.90
2019-05-20T16:03:55.125Z,2.43
2019-05-20T16:06:24.514Z,2.63
2019-05-20T16:08:54.022Z,2.83
2019-05-20T16:11:23.866Z,2.50
2019-05-20T16:13:54.267Z,2.60
2019-05-20T16:16:23.681Z,2.53
2019-05-20T16:18:53.114Z,2.67
2019-05-20T16:21:22.902Z,2.50
2019-05-20T16:23:52.483Z,2.53
2019-05-20T16:26:22.275Z,2.07
2019-05-20T16:28:52.006Z,2.40
2019-05-20T16:31:21.818Z,2.60
2019-05-20T16:33:51.303Z,2.43
2019-05-20T16:36:21.163Z,2.10
2019-05-20T16:38:51.190Z,2.50
2019-05-20T16:41:20.599Z,2.90
2019-05-20T16:43:50.115Z,2.33
2019-05-20T16:46:19.997Z,2.70
2019-05-20T16:48:49.785Z,2.50
2019-05-20T16:51:22.273Z,2.83
2019-05-20T16:53:50.846Z,2.70
2019-05-20T16:56:20.542Z,2.40
2019-05-20T16:58:50.073Z,2.60
2019-05-20T17:01:19.642Z,2.40
2019-05-20T17:03:49.408Z,2.60
2019-05-20T17:06:18.916Z,2.50
2019-05-20T17:08:48.666Z,2.13
2019-05-20T17:11:18.472Z,2.37
2019-05-20T17:13:48.250Z,2.23
2019-05-20T17:16:18.416Z,2.70
2019-05-20T17:18:47.839Z,2.57
2019-05-20T17:21:17.506Z,2.30
2019-05-20T17:23:47.341Z,2.37
2019-05-20T17:26:17.967Z,2.57
2019-05-20T17:28:47.676Z,2.43
2019-05-20T17:31:17.592Z,2.60
2019-05-20T17:33:47.633Z,2.40
2019-05-20T17:36:17.477Z,2.53
2019-05-20T17:38:47.116Z,2.50
2019-05-20T17:41:16.619Z,2.40
2019-05-20T17:43:46.439Z,2.30
2019-05-20T17:46:16.524Z,2.50
2019-05-20T17:48:46.149Z,2.70
2019-05-20T17:51:15.908Z,2.50
2019-05-20T17:53:45.782Z,2.50
2019-05-20T17:56:15.584Z,2.77
2019-05-20T17:58:45.314Z,2.67
2019-05-20T18:01:16.145Z,3.13
2019-05-20T18:03:46.401Z,2.30
2019-05-20T18:06:16.066Z,2.43
2019-05-20T18:08:48.860Z,2.67
2019-05-20T18:11:19.319Z,2.40
2019-05-20T18:13:48.949Z,2.63
2019-05-20T18:16:18.786Z,2.33
2019-05-20T18:18:48.552Z,2.30
2019-05-20T18:21:18.321Z,2.60
2019-05-20T18:23:48.088Z,2.37
2019-05-20T18:26:17.973Z,2.63
2019-05-20T18:28:47.753Z,2.77
2019-05-20T18:31:31.279Z,2.43
2019-05-20T18:33:48.807Z,2.80
2019-05-20T18:36:18.767Z,2.30
2019-05-20T18:38:49.642Z,2.13
2019-05-20T18:41:19.805Z,2.50
2019-05-20T18:43:49.491Z,2.50
2019-05-20T18:46:19.452Z,2.50
2019-05-20T18:48:49.241Z,2.90
2019-05-20T18:51:18.915Z,3.17
2019-05-20T18:53:48.691Z,2.60
2019-05-20T18:56:18.507Z,2.77
2019-05-20T18:58:48.178Z,2.80
2019-05-20T19:01:19.629Z,2.70
2019-05-20T19:03:49.438Z,2.43
2019-05-20T19:06:19.065Z,2.67
2019-05-20T19:08:48.820Z,2.40
2019-05-20T19:11:18.669Z,2.30
2019-05-20T19:13:48.481Z,2.40
2019-05-20T19:16:17.980Z,2.20
2019-05-20T19:18:47.656Z,2.40
2019-05-20T19:21:17.304Z,2.57
2019-05-20T19:23:46.918Z,2.30
2019-05-20T19:26:24.408Z,3.90
2019-05-20T19:28:48.190Z,3.27
2019-05-20T19:31:17.851Z,3.47
2019-05-20T19:33:47.617Z,2.50
2019-05-20T19:36:17.471Z,2.70
2019-05-20T19:38:47.053Z,2.93
2019-05-20T19:41:16.793Z,2.80
2019-05-20T19:43:46.590Z,2.60
2019-05-20T19:46:16.331Z,2.67
2019-05-20T19:48:46.158Z,2.60
2019-05-20T19:51:15.987Z,2.70
2019-05-20T19:53:45.843Z,2.70
2019-05-20T19:56:15.556Z,2.80
2019-05-20T19:58:45.377Z,2.93
2019-05-20T20:01:15.165Z,5.17
2019-05-20T20:03:44.964Z,3.40
2019-05-20T20:06:14.836Z,2.60
2019-05-20T20:08:44.432Z,2.87
2019-05-20T20:11:13.893Z,2.73
2019-05-20T20:13:43.503Z,2.70
2019-05-20T20:16:17.592Z,2.83
2019-05-20T20:18:44.385Z,3.10
2019-05-20T20:21:14.211Z,2.37
2019-05-20T20:23:43.894Z,2.70
2019-05-20T20:26:13.642Z,2.63
2019-05-20T20:28:43.139Z,3.00
2019-05-20T20:31:12.799Z,2.43
2019-05-20T20:33:43.134Z,2.47
2019-05-20T20:36:12.864Z,2.53
2019-05-20T20:38:42.379Z,2.67
2019-05-20T20:41:11.790Z,2.70
2019-05-20T20:43:41.374Z,2.60
2019-05-20T20:46:11.091Z,2.77
2019-05-20T20:48:40.680Z,2.43
2019-05-20T20:51:10.342Z,2.50
2019-05-20T20:53:40.136Z,2.60
2019-05-20T20:56:24.229Z,2.60
2019-05-20T20:58:41.232Z,3.63
2019-05-20T21:01:10.939Z,3.53
2019-05-20T21:03:40.764Z,3.00
2019-05-20T21:06:10.655Z,3.20
2019-05-20T21:08:40.391Z,3.10
2019-05-20T21:11:10.093Z,3.07
2019-05-20T21:13:39.802Z,3.03
2019-05-20T21:16:09.603Z,2.90
2019-05-20T21:18:39.273Z,2.77
2019-05-20T21:21:09.032Z,2.73
2019-05-20T21:23:38.880Z,2.83
2019-05-20T21:26:08.585Z,3.20
2019-05-20T21:28:38.254Z,3.30
2019-05-20T21:31:08.089Z,3.23
2019-05-20T21:33:37.777Z,3.10
2019-05-20T21:36:07.579Z,3.00
2019-05-20T21:38:37.369Z,2.90
2019-05-20T21:41:07.156Z,3.00
2019-05-20T21:43:37.017Z,3.80
2019-05-20T21:46:06.725Z,3.47
2019-05-20T21:48:36.342Z,3.10
2019-05-20T21:51:06.074Z,3.17
2019-05-20T21:53:35.822Z,2.90
2019-05-20T21:56:05.479Z,3.03
2019-05-20T21:58:35.209Z,2.90
2019-05-20T22:01:05.031Z,2.60
2019-05-20T22:03:34.417Z,3.17
2019-05-20T22:06:04.221Z,3.20
2019-05-20T22:08:33.675Z,2.93
2019-05-20T22:11:03.203Z,2.80
2019-05-20T22:13:32.862Z,3.20
2019-05-20T22:16:02.805Z,2.87
2019-05-20T22:18:32.358Z,2.80
2019-05-20T22:21:01.864Z,3.20
2019-05-20T22:23:46.485Z,2.90
2019-05-20T22:26:16.310Z,3.67
2019-05-20T22:28:46.019Z,2.87
2019-05-20T22:31:15.505Z,3.00
2019-05-20T22:33:44.948Z,3.20
2019-05-20T22:36:14.626Z,2.90
2019-05-20T22:38:44.139Z,3.20
2019-05-20T22:41:13.890Z,3.60
2019-05-20T22:43:43.764Z,3.20
2019-05-20T22:46:13.258Z,2.77
2019-05-20T22:48:42.921Z,2.70
2019-05-20T22:51:12.848Z,3.10
2019-05-20T22:53:42.319Z,3.07
2019-05-20T22:56:11.881Z,3.00
2019-05-20T22:58:41.386Z,3.00
2019-05-20T23:01:11.065Z,3.00
2019-05-20T23:03:55.385Z,3.47
2019-05-20T23:06:11.970Z,3.30
2019-05-20T23:08:41.463Z,3.20
2019-05-20T23:11:11.175Z,2.90
2019-05-20T23:13:41.034Z,3.23
2019-05-20T23:16:10.433Z,3.30
2019-05-20T23:18:39.899Z,3.20
2019-05-20T23:21:10.433Z,2.80
2019-05-20T23:23:40.314Z,3.30
2019-05-20T23:26:09.701Z,3.13
2019-05-20T23:28:39.398Z,3.10
2019-05-20T23:31:08.911Z,2.90
2019-05-20T23:33:38.533Z,3.00
2019-05-20T23:36:08.141Z,2.70
2019-05-20T23:38:37.793Z,2.87
2019-05-20T23:41:07.630Z,3.10
2019-05-20T23:43:37.064Z,3.03
2019-05-20T23:46:06.780Z,3.27
2019-05-20T23:48:36.412Z,3.47
2019-05-20T23:51:06.018Z,3.03
2019-05-20T23:53:35.643Z,3.80
2019-05-20T23:56:05.458Z,3.53
2019-05-20T23:58:35.093Z,3.60
